Paonia, CO

2:06 PM MST on December 27, 2014 (GMT -0700)
Lamborn Mesa | Change Station
CLOSE
Current Station
Personal Weather Station
Location: Paonia, CO
Elevation: 5900 ft
Nearby Weather Stations
Active Advisory: Winter Storm Watch Active Notice: Public Information Statement

Elev 5900 ft 38.86 °N, 107.59 °W | Updated 4 minutes ago

Clear
Clear
26.4 °F
Feels Like 26 °F
N
2.0
Wind Variable Wind from SSE
Gusts 4.9 mph

Today
High -- | Low -- °F
--% Chance of Precip.
Yesterday
High -- | Low -- °F
Precip. -- in
7:27 AM 4:55 PM
Waxing Crescent, 40% visible
Pressure 30.27 in
Visibility 10.0 miles
Clouds Clear
Windchill 26 °F
Dew Point 8 °F
Humidity 45%
Rainfall -999.00 in
Snow Depth Not available.
UV 2 out of 12
Pollen .10 out of 12
Air Quality Not available.
Flu Activity Not available.
METAR KAJZ 272055Z AUTO 00000KT 10SM CLR M01/M10 A3027 RMK AO2 T10111105

More Conditions Fewer Conditions

Pressure 30.27 in
Visibility 10.0 miles
Clouds Clear
Windchill 26 °F
Dew Point 8 °F
Humidity 45%
Rainfall -999.00 in
Snow Depth Not available.
UV 2 out of 12
Pollen .10 out of 12
Air Quality Not available.
Flu Activity Not available.
METAR KAJZ 272055Z AUTO 00000KT 10SM CLR M01/M10 A3027 RMK AO2 T10111105

More Conditions Fewer Conditions

10-Day Weather Forecast

Almanac

Astronomy

Dec. 27, 2014 Rise Set
Actual Time
Civil Twilight
Nautical Twilight
Astronomical Twilight
Moon
Length of Visible Light
Length of Day
Tomorrow will be .
, % of the Moon is Illuminated

Today's Extremes

State Highs State Lows

Community

WunderPhotos

Upload Photos

1,781,065 photos uploaded!

WunderBlogs® & News

Nearby

Air Quality

  Air Quality AQ Index Pollutant
Not available.

Snow Depth

Station Depth Elevation

Earthquake Activity

City Distance Mag. Time & Date
Minimum magnitude displayed is 2.5.

Coastal Water Temperatures

Place Temperature

Nearby Weather Stations